createdAt,value
2018-03-30T00:00:44.494Z,7.80
2018-03-30T00:03:11.990Z,7.70
2018-03-30T00:05:39.480Z,7.70
2018-03-30T00:08:07.751Z,7.70
2018-03-30T00:10:40.920Z,7.70
2018-03-30T00:13:08.423Z,7.80
2018-03-30T00:15:35.894Z,7.80
2018-03-30T00:18:03.400Z,7.70
2018-03-30T00:20:30.879Z,7.70
2018-03-30T00:22:58.355Z,7.60
2018-03-30T00:25:25.856Z,7.60
2018-03-30T00:27:53.341Z,7.70
2018-03-30T00:30:20.834Z,7.70
2018-03-30T00:32:48.318Z,7.70
2018-03-30T00:35:15.819Z,7.70
2018-03-30T00:37:43.296Z,7.70
2018-03-30T00:40:10.803Z,7.70
2018-03-30T00:42:38.279Z,7.70
2018-03-30T00:45:06.544Z,7.70
2018-03-30T00:47:34.023Z,7.60
2018-03-30T00:50:01.525Z,7.70
2018-03-30T00:52:28.999Z,7.60
2018-03-30T00:54:56.500Z,7.40
2018-03-30T00:57:23.972Z,7.30
2018-03-30T00:59:51.472Z,7.00
2018-03-30T01:02:18.953Z,6.90
2018-03-30T01:04:47.216Z,6.70
2018-03-30T01:07:14.687Z,6.70
2018-03-30T01:09:42.199Z,6.80
2018-03-30T01:12:10.438Z,6.70
2018-03-30T01:14:37.919Z,6.70
2018-03-30T01:17:05.411Z,6.70
2018-03-30T01:19:33.655Z,6.70
2018-03-30T01:22:01.155Z,6.60
2018-03-30T01:24:28.633Z,6.70
2018-03-30T01:26:56.910Z,6.80
2018-03-30T01:29:24.398Z,6.80
2018-03-30T01:31:52.669Z,7.00
2018-03-30T01:34:20.164Z,6.90
2018-03-30T01:36:47.666Z,7.00
2018-03-30T01:39:15.162Z,7.10
2018-03-30T01:41:42.679Z,7.00
2018-03-30T01:44:10.177Z,7.10
2018-03-30T01:46:38.454Z,7.00
2018-03-30T01:49:05.946Z,6.90
2018-03-30T01:51:33.457Z,7.00
2018-03-30T01:54:00.960Z,7.00
2018-03-30T01:56:28.472Z,7.00
2018-03-30T01:58:55.956Z,7.00
2018-03-30T02:01:23.462Z,6.90
2018-03-30T02:03:50.954Z,7.00
2018-03-30T02:06:18.445Z,7.00
2018-03-30T02:08:45.952Z,7.10
2018-03-30T02:11:13.445Z,7.10
2018-03-30T02:13:40.958Z,7.10
2018-03-30T02:16:08.453Z,7.10
2018-03-30T02:18:35.956Z,7.10
2018-03-30T02:21:04.224Z,6.80
2018-03-30T02:23:32.497Z,6.70
2018-03-30T02:25:59.985Z,6.60
2018-03-30T02:28:28.253Z,6.50
2018-03-30T02:30:55.737Z,6.40
2018-03-30T02:33:24.022Z,6.30
2018-03-30T02:35:51.517Z,6.20
2018-03-30T02:38:19.038Z,6.20
2018-03-30T02:40:46.536Z,6.20
2018-03-30T02:43:14.045Z,6.20
2018-03-30T02:45:41.533Z,6.30
2018-03-30T02:48:09.043Z,6.20
2018-03-30T02:50:36.523Z,6.30
2018-03-30T02:53:04.798Z,6.00
2018-03-30T02:55:32.289Z,6.00
2018-03-30T02:58:00.575Z,5.90
2018-03-30T03:00:28.830Z,5.80
2018-03-30T03:02:56.309Z,5.80
2018-03-30T03:05:23.819Z,5.80
2018-03-30T03:07:51.317Z,5.80
2018-03-30T03:10:18.828Z,5.70
2018-03-30T03:12:46.329Z,5.70
2018-03-30T03:15:13.852Z,5.60
2018-03-30T03:17:41.346Z,5.70
2018-03-30T03:20:08.909Z,5.70
2018-03-30T03:22:36.392Z,5.70
2018-03-30T03:25:03.991Z,5.60
2018-03-30T03:27:31.477Z,5.60
2018-03-30T03:29:58.988Z,5.60
2018-03-30T03:32:26.489Z,5.50
2018-03-30T03:34:54.009Z,5.50
2018-03-30T03:37:21.497Z,5.40
2018-03-30T03:39:49.001Z,5.40
2018-03-30T03:42:17.261Z,5.30
2018-03-30T03:44:44.778Z,5.30
2018-03-30T03:47:12.280Z,5.40
2018-03-30T03:49:39.805Z,5.30
2018-03-30T03:52:07.295Z,5.20
2018-03-30T03:54:34.781Z,5.20
2018-03-30T03:57:02.285Z,5.10
2018-03-30T03:59:30.542Z,5.00
2018-03-30T04:01:58.060Z,4.90
2018-03-30T04:04:26.316Z,5.00
2018-03-30T04:06:53.821Z,5.00
2018-03-30T04:09:22.073Z,5.00
2018-03-30T04:11:49.581Z,5.00
2018-03-30T04:14:17.837Z,5.00
2018-03-30T04:16:45.349Z,4.90
2018-03-30T04:19:12.842Z,4.90
2018-03-30T04:21:40.378Z,5.00
2018-03-30T04:24:08.662Z,5.10
2018-03-30T04:26:36.916Z,5.30
2018-03-30T04:29:04.412Z,5.20
2018-03-30T04:31:31.905Z,5.10
2018-03-30T04:34:00.187Z,4.90
2018-03-30T04:36:28.452Z,5.00
2018-03-30T04:39:15.371Z,5.00
2018-03-30T04:41:42.857Z,5.00
2018-03-30T04:44:10.382Z,4.90
2018-03-30T04:46:37.869Z,5.00
2018-03-30T04:49:05.383Z,4.90
2018-03-30T04:51:33.636Z,4.90
2018-03-30T04:54:01.149Z,4.90
2018-03-30T04:56:29.408Z,4.80
2018-03-30T04:58:56.929Z,4.70
2018-03-30T05:01:24.421Z,4.90
2018-03-30T05:03:51.933Z,5.00
2018-03-30T05:06:20.185Z,5.40
2018-03-30T05:08:47.704Z,5.30
2018-03-30T05:11:15.961Z,5.30
2018-03-30T05:13:43.469Z,5.20
2018-03-30T05:16:10.956Z,5.10
2018-03-30T05:18:38.477Z,5.20
2018-03-30T05:21:05.971Z,5.30
2018-03-30T05:23:33.501Z,5.10
2018-03-30T05:26:00.989Z,5.00
2018-03-30T05:28:28.488Z,4.90
2018-03-30T05:30:55.997Z,4.90
2018-03-30T05:33:23.490Z,5.00
2018-03-30T05:35:51.002Z,5.10
2018-03-30T05:38:18.495Z,5.10
2018-03-30T05:40:46.014Z,5.20
2018-03-30T05:43:13.509Z,5.30
2018-03-30T05:45:41.030Z,5.20
2018-03-30T05:48:08.517Z,5.10
2018-03-30T05:50:36.030Z,5.00
2018-03-30T05:53:03.521Z,5.10
2018-03-30T05:55:31.035Z,5.40
2018-03-30T05:57:58.536Z,5.50
2018-03-30T06:00:26.053Z,5.60
2018-03-30T06:02:53.541Z,5.60
2018-03-30T06:05:21.065Z,5.60
2018-03-30T06:07:48.560Z,5.40
2018-03-30T06:10:16.048Z,5.50
2018-03-30T06:12:43.554Z,5.50
2018-03-30T06:15:11.053Z,5.60
2018-03-30T06:17:38.565Z,5.70
2018-03-30T06:20:06.057Z,5.70
2018-03-30T06:22:34.336Z,5.80
2018-03-30T06:25:02.599Z,5.80
2018-03-30T06:27:30.114Z,5.80
2018-03-30T06:29:57.610Z,5.90
2018-03-30T06:32:25.122Z,6.00
2018-03-30T06:34:52.612Z,5.90
2018-03-30T06:37:20.885Z,6.10
2018-03-30T06:39:48.376Z,6.00
2018-03-30T06:42:16.644Z,6.30
2018-03-30T06:44:44.133Z,6.30
2018-03-30T06:47:12.493Z,6.50
2018-03-30T06:49:39.981Z,6.50
2018-03-30T06:52:07.494Z,6.60
2018-03-30T06:54:34.976Z,6.60
2018-03-30T06:57:02.476Z,6.70
2018-03-30T06:59:29.990Z,6.70
2018-03-30T07:01:57.474Z,6.70
2018-03-30T07:04:24.985Z,6.80
2018-03-30T07:06:52.478Z,6.80
2018-03-30T07:09:20.758Z,7.00
2018-03-30T07:11:48.245Z,7.00
2018-03-30T07:14:16.516Z,7.10
2018-03-30T07:16:44.002Z,7.10
2018-03-30T07:19:12.277Z,7.40
2018-03-30T07:21:39.769Z,7.30
2018-03-30T07:24:07.282Z,7.50
2018-03-30T07:26:34.768Z,7.50
2018-03-30T07:29:02.286Z,7.60
2018-03-30T07:31:29.777Z,7.70
2018-03-30T07:33:57.294Z,7.80
2018-03-30T07:36:24.776Z,8.20
2018-03-30T07:38:53.050Z,8.50
2018-03-30T07:41:20.537Z,8.40
2018-03-30T07:43:48.796Z,8.90
2018-03-30T07:46:16.304Z,8.90
2018-03-30T07:48:43.801Z,9.00
2018-03-30T07:51:11.313Z,9.10
2018-03-30T07:53:38.809Z,9.20
2018-03-30T07:56:07.081Z,9.50
2018-03-30T07:58:34.560Z,9.40
2018-03-30T08:01:02.846Z,9.70
2018-03-30T08:03:31.109Z,9.80
2018-03-30T08:05:58.627Z,9.80
2018-03-30T08:08:26.134Z,10.00
2018-03-30T08:10:53.653Z,10.10
2018-03-30T08:13:27.220Z,10.30
2018-03-30T08:15:54.792Z,10.30
2018-03-30T08:18:22.264Z,10.40
2018-03-30T08:20:49.784Z,10.40
2018-03-30T08:23:17.289Z,10.50
2018-03-30T08:25:44.796Z,10.50
2018-03-30T08:28:12.309Z,10.40
2018-03-30T08:30:39.826Z,10.60
2018-03-30T08:33:07.321Z,10.70
2018-03-30T08:35:34.858Z,10.90
2018-03-30T08:38:02.358Z,10.90
2018-03-30T08:40:29.865Z,10.90
2018-03-30T08:42:57.409Z,11.00
2018-03-30T08:45:24.938Z,11.10
2018-03-30T08:47:52.456Z,11.10
2018-03-30T08:50:20.730Z,11.20
2018-03-30T08:52:48.284Z,11.10
2018-03-30T08:55:15.794Z,11.20
2018-03-30T08:57:44.069Z,11.40
2018-03-30T09:00:12.334Z,11.50
2018-03-30T09:02:39.865Z,11.50
2018-03-30T09:05:07.373Z,11.70
2018-03-30T09:07:34.920Z,11.70
2018-03-30T09:10:02.429Z,11.80
2018-03-30T09:12:29.947Z,11.80
2018-03-30T09:14:57.456Z,11.90
2018-03-30T09:17:24.977Z,11.90
2018-03-30T09:19:52.481Z,12.10
2018-03-30T09:22:20.014Z,12.20
2018-03-30T09:24:47.531Z,12.10
2018-03-30T09:27:15.038Z,12.30
2018-03-30T09:29:49.064Z,12.50
2018-03-30T09:32:17.337Z,12.50
2018-03-30T09:34:44.857Z,12.50
2018-03-30T09:37:19.178Z,12.50
2018-03-30T09:39:46.691Z,12.80
2018-03-30T09:42:14.193Z,12.90
2018-03-30T09:44:42.472Z,12.90
2018-03-30T09:47:09.961Z,12.80
2018-03-30T09:49:37.481Z,13.00
2018-03-30T09:52:05.025Z,12.50
2018-03-30T09:54:32.514Z,12.80
2018-03-30T09:57:00.015Z,13.30
2018-03-30T09:59:28.313Z,13.60
2018-03-30T10:01:56.584Z,13.60
2018-03-30T10:04:34.022Z,13.60
2018-03-30T10:07:02.282Z,13.70
2018-03-30T10:09:29.814Z,13.60
2018-03-30T10:11:57.681Z,13.40
2018-03-30T10:14:25.185Z,13.60
2018-03-30T10:16:52.707Z,13.70
2018-03-30T10:19:20.202Z,13.50
2018-03-30T10:21:47.720Z,13.60
2018-03-30T10:24:15.230Z,13.70
2018-03-30T10:26:42.746Z,13.80
2018-03-30T10:29:10.287Z,14.00
2018-03-30T10:31:37.780Z,13.80
2018-03-30T10:34:05.268Z,14.10
2018-03-30T10:36:32.778Z,14.10
2018-03-30T10:39:00.271Z,14.00
2018-03-30T10:41:27.785Z,14.10
2018-03-30T10:43:55.286Z,14.00
2018-03-30T10:46:22.799Z,14.10
2018-03-30T10:48:50.293Z,13.90
2018-03-30T10:51:17.805Z,13.80
2018-03-30T10:53:45.300Z,13.90
2018-03-30T10:56:12.810Z,13.90
2018-03-30T10:58:40.302Z,14.00
2018-03-30T11:01:08.593Z,14.10
2018-03-30T11:03:36.098Z,14.10
2018-03-30T11:06:03.589Z,13.90
2018-03-30T11:08:31.104Z,13.60
2018-03-30T11:10:58.607Z,13.20
2018-03-30T11:13:26.120Z,13.50
2018-03-30T11:15:53.625Z,13.60
2018-03-30T11:18:21.146Z,13.70
2018-03-30T11:20:48.633Z,13.70
2018-03-30T11:23:16.147Z,13.70
2018-03-30T11:25:43.649Z,13.80
2018-03-30T11:28:11.324Z,13.70
2018-03-30T11:30:38.813Z,13.70
2018-03-30T11:33:06.326Z,13.60
2018-03-30T11:35:33.813Z,13.80
2018-03-30T11:38:01.334Z,13.90
2018-03-30T11:40:29.584Z,14.10
2018-03-30T11:42:57.089Z,14.00
2018-03-30T11:45:24.582Z,14.40
2018-03-30T11:47:52.092Z,14.50
2018-03-30T11:50:19.585Z,14.10
2018-03-30T11:52:47.092Z,14.20
2018-03-30T11:55:14.590Z,14.30
2018-03-30T11:57:42.110Z,14.20
2018-03-30T12:00:09.600Z,14.10
2018-03-30T12:02:37.891Z,13.80
2018-03-30T12:05:05.381Z,13.70
2018-03-30T12:07:32.906Z,13.50
2018-03-30T12:10:00.400Z,13.40
2018-03-30T12:12:27.902Z,13.50
2018-03-30T12:14:55.413Z,13.70
2018-03-30T12:17:22.911Z,13.80
2018-03-30T12:19:51.225Z,13.90
2018-03-30T12:22:18.726Z,13.90
2018-03-30T12:24:46.257Z,13.90
2018-03-30T12:27:13.746Z,13.70
2018-03-30T12:29:41.256Z,13.70
2018-03-30T12:32:08.741Z,13.60
2018-03-30T12:34:37.024Z,13.50
2018-03-30T12:37:05.292Z,13.50
2018-03-30T12:39:32.797Z,13.40
2018-03-30T12:42:01.058Z,13.50
2018-03-30T12:44:28.577Z,13.40
2018-03-30T12:46:56.068Z,13.50
2018-03-30T12:49:23.585Z,13.50
2018-03-30T12:51:51.844Z,13.40
2018-03-30T12:54:19.356Z,13.30
2018-03-30T12:56:46.856Z,13.10
2018-03-30T12:59:14.372Z,13.20
2018-03-30T13:01:42.651Z,13.30
2018-03-30T13:04:10.341Z,13.20
2018-03-30T13:06:37.858Z,13.30
2018-03-30T13:09:06.087Z,13.30
2018-03-30T13:11:33.605Z,13.30
2018-03-30T13:14:01.157Z,13.30
2018-03-30T13:16:28.673Z,13.30
2018-03-30T13:18:56.171Z,13.40
2018-03-30T13:21:23.681Z,13.40
2018-03-30T13:23:51.169Z,13.40
2018-03-30T13:26:18.678Z,13.30
2018-03-30T13:28:46.169Z,13.40
2018-03-30T13:31:14.459Z,13.40
2018-03-30T13:33:42.719Z,13.40
2018-03-30T13:36:10.225Z,13.40
2018-03-30T13:38:38.488Z,13.40
2018-03-30T13:41:06.009Z,13.40
2018-03-30T13:43:33.517Z,13.50
2018-03-30T13:46:01.036Z,13.40
2018-03-30T13:48:28.542Z,13.40
2018-03-30T13:54:02.677Z,13.40
2018-03-30T13:56:30.187Z,13.40
2018-03-30T13:59:06.245Z,13.30
2018-03-30T14:01:34.476Z,13.40
2018-03-30T14:04:08.145Z,13.40
2018-03-30T14:09:42.103Z,13.40
2018-03-30T14:12:27.137Z,13.40
2018-03-30T14:14:55.393Z,13.50
2018-03-30T14:17:27.421Z,13.50
2018-03-30T14:20:07.580Z,13.50
2018-03-30T14:22:36.565Z,13.50
2018-03-30T14:25:17.589Z,13.40
2018-03-30T14:27:50.733Z,13.40
2018-03-30T14:30:32.788Z,13.40
2018-03-30T14:36:10.847Z,13.40
2018-03-30T14:38:47.815Z,13.40
2018-03-30T14:41:16.096Z,13.50
2018-03-30T14:43:44.383Z,13.40
2018-03-30T14:46:18.648Z,13.50
2018-03-30T14:48:47.796Z,13.50
2018-03-30T14:54:48.157Z,13.60
2018-03-30T14:57:16.519Z,13.60
2018-03-30T14:59:49.640Z,13.50
2018-03-30T15:02:17.160Z,13.50
2018-03-30T15:04:54.156Z,13.50
2018-03-30T15:07:25.157Z,13.50
2018-03-30T15:09:53.565Z,13.50
2018-03-30T15:12:30.603Z,13.60
2018-03-30T15:18:01.437Z,13.60
2018-03-30T15:20:40.492Z,13.60
2018-03-30T15:23:13.730Z,13.60
2018-03-30T15:25:45.285Z,13.50
2018-03-30T15:28:13.581Z,13.50
2018-03-30T15:30:41.848Z,13.60
2018-03-30T15:36:25.356Z,13.50
2018-03-30T15:38:52.869Z,13.50
2018-03-30T15:41:20.357Z,13.60
2018-03-30T15:43:48.779Z,13.60
2018-03-30T15:46:17.065Z,13.60
2018-03-30T15:48:44.580Z,13.60
2018-03-30T15:51:17.769Z,13.70
2018-03-30T15:53:45.574Z,13.70
2018-03-30T15:56:13.849Z,13.70
2018-03-30T15:58:41.341Z,13.70
2018-03-30T16:01:08.858Z,13.70
2018-03-30T16:03:37.116Z,13.70
2018-03-30T16:06:04.634Z,13.60
2018-03-30T16:08:32.901Z,13.60
2018-03-30T16:13:59.121Z,13.60
2018-03-30T16:16:26.637Z,13.60
2018-03-30T16:18:56.454Z,13.60
2018-03-30T16:21:23.453Z,13.60
2018-03-30T16:23:50.457Z,13.50
2018-03-30T16:26:17.474Z,13.60
2018-03-30T16:28:44.472Z,13.60
2018-03-30T16:31:11.492Z,13.60
2018-03-30T16:33:38.488Z,13.50
2018-03-30T16:36:05.519Z,13.60
2018-03-30T16:38:32.523Z,13.60
2018-03-30T16:40:59.540Z,13.50
2018-03-30T16:43:26.541Z,13.50
2018-03-30T16:45:53.560Z,13.50
2018-03-30T16:48:20.561Z,13.50
2018-03-30T16:50:47.621Z,13.50
2018-03-30T16:53:14.632Z,13.40
2018-03-30T16:55:42.409Z,13.50
2018-03-30T16:58:09.450Z,13.50
2018-03-30T17:00:36.445Z,13.50
2018-03-30T17:03:03.465Z,13.40
2018-03-30T17:05:31.241Z,13.50
2018-03-30T17:07:58.274Z,13.40
2018-03-30T17:10:25.293Z,13.50
2018-03-30T17:12:52.335Z,13.40
2018-03-30T17:15:19.369Z,13.40
2018-03-30T17:17:47.169Z,13.30
2018-03-30T17:20:14.168Z,13.30
2018-03-30T17:22:41.188Z,13.30
2018-03-30T17:25:08.188Z,13.40
2018-03-30T17:27:35.217Z,13.40
2018-03-30T17:30:02.230Z,13.30
2018-03-30T17:32:30.026Z,13.30
2018-03-30T17:34:57.030Z,13.30
2018-03-30T17:37:24.031Z,13.30
2018-03-30T17:39:51.828Z,13.20
2018-03-30T17:42:18.825Z,13.10
2018-03-30T17:44:45.850Z,13.20
2018-03-30T17:47:12.850Z,13.20
2018-03-30T17:49:39.873Z,13.10
2018-03-30T17:52:06.886Z,13.00
2018-03-30T17:54:33.911Z,13.00
2018-03-30T17:57:00.914Z,13.00
2018-03-30T17:59:28.717Z,13.00
2018-03-30T18:01:55.756Z,13.00
2018-03-30T18:04:22.765Z,13.00
2018-03-30T18:06:49.777Z,13.00
2018-03-30T18:09:17.579Z,12.90
2018-03-30T18:11:44.584Z,12.80
2018-03-30T18:14:11.609Z,12.80
2018-03-30T18:16:38.618Z,12.70
2018-03-30T18:19:05.666Z,12.70
2018-03-30T18:21:32.666Z,12.60
2018-03-30T18:23:59.689Z,12.60
2018-03-30T18:26:27.476Z,12.60
2018-03-30T18:28:55.254Z,12.70
2018-03-30T18:31:23.048Z,12.70
2018-03-30T18:33:50.049Z,12.60
2018-03-30T18:36:17.072Z,12.70
2018-03-30T18:38:44.077Z,12.50
2018-03-30T18:41:11.093Z,12.60
2018-03-30T18:43:38.089Z,12.50
2018-03-30T18:46:05.124Z,12.50
2018-03-30T18:48:32.130Z,12.40
2018-03-30T18:50:59.149Z,12.30
2018-03-30T18:53:26.152Z,12.30
2018-03-30T18:55:53.961Z,12.10
2018-03-30T18:58:20.966Z,12.10
2018-03-30T19:00:47.970Z,12.10
2018-03-30T19:03:14.997Z,12.00
2018-03-30T19:05:42.005Z,11.90
2018-03-30T19:08:09.026Z,11.90
2018-03-30T19:10:36.802Z,11.70
2018-03-30T19:13:04.594Z,11.70
2018-03-30T19:15:31.611Z,11.70
2018-03-30T19:17:58.640Z,11.60
2018-03-30T19:20:25.644Z,11.60
2018-03-30T19:22:52.674Z,11.50
2018-03-30T19:25:19.676Z,11.50
2018-03-30T19:27:47.465Z,11.50
2018-03-30T19:30:14.465Z,11.50
2018-03-30T19:32:41.504Z,11.50
2018-03-30T19:35:08.531Z,11.50
2018-03-30T19:37:36.323Z,11.30
2018-03-30T19:40:03.353Z,11.20
2018-03-30T19:42:31.122Z,11.30
2018-03-30T19:44:58.142Z,11.20
2018-03-30T19:47:25.156Z,11.20
2018-03-30T19:49:52.958Z,11.10
2018-03-30T19:52:19.962Z,11.10
2018-03-30T19:54:47.010Z,11.00
2018-03-30T19:57:14.018Z,11.10
2018-03-30T19:59:41.810Z,11.00
2018-03-30T20:02:08.808Z,10.90
2018-03-30T20:04:35.832Z,11.00
2018-03-30T20:07:02.833Z,10.90
2018-03-30T20:09:29.847Z,10.90
2018-03-30T20:11:56.852Z,10.80
2018-03-30T20:14:23.897Z,10.80
2018-03-30T20:16:50.902Z,10.80
2018-03-30T20:19:18.682Z,10.90
2018-03-30T20:21:46.491Z,10.90
2018-03-30T20:24:13.494Z,10.80
2018-03-30T20:26:40.529Z,10.90
2018-03-30T20:29:07.530Z,10.90
2018-03-30T20:31:35.809Z,10.90
2018-03-30T20:34:02.810Z,10.80
2018-03-30T20:36:29.827Z,10.90
2018-03-30T20:38:57.592Z,10.80
2018-03-30T20:41:24.613Z,10.80
2018-03-30T20:43:51.614Z,10.80
2018-03-30T20:46:19.425Z,10.90
2018-03-30T20:48:46.436Z,10.80
2018-03-30T20:51:13.510Z,10.90
2018-03-30T20:53:40.607Z,10.80
2018-03-30T20:56:07.634Z,10.80
2018-03-30T20:58:34.656Z,10.70
2018-03-30T21:01:01.724Z,10.80
2018-03-30T21:03:28.745Z,10.80
2018-03-30T21:05:55.761Z,10.70
2018-03-30T21:08:22.786Z,10.80
2018-03-30T21:10:50.553Z,10.90
2018-03-30T21:13:17.574Z,10.90
2018-03-30T21:15:45.355Z,10.70
2018-03-30T21:18:13.147Z,10.80
2018-03-30T21:20:40.156Z,10.70
2018-03-30T21:23:07.182Z,10.70
2018-03-30T21:25:34.185Z,10.70
2018-03-30T21:28:01.208Z,10.70
2018-03-30T21:30:28.219Z,10.70
2018-03-30T21:32:56.010Z,10.60
2018-03-30T21:35:23.778Z,10.60
2018-03-30T21:37:51.585Z,10.60
2018-03-30T21:40:18.595Z,10.50
2018-03-30T21:42:45.601Z,10.50
2018-03-30T21:45:12.626Z,10.50
2018-03-30T21:47:40.398Z,10.40
2018-03-30T21:50:07.429Z,10.40
2018-03-30T21:52:34.428Z,10.50
2018-03-30T21:55:02.212Z,10.50
2018-03-30T21:57:29.980Z,10.40
2018-03-30T21:59:57.765Z,10.30
2018-03-30T22:02:25.541Z,10.30
2018-03-30T22:04:53.341Z,10.30
2018-03-30T22:07:20.342Z,10.30
2018-03-30T22:09:47.369Z,10.30
2018-03-30T22:12:14.370Z,10.40
2018-03-30T22:14:41.425Z,10.30
2018-03-30T22:17:08.428Z,10.30
2018-03-30T22:19:35.454Z,10.30
2018-03-30T22:22:02.453Z,10.30
2018-03-30T22:24:29.488Z,10.30
2018-03-30T22:26:56.488Z,10.20
2018-03-30T22:29:23.515Z,10.20
2018-03-30T22:31:50.534Z,10.20
2018-03-30T22:34:17.528Z,10.20
2018-03-30T22:36:44.557Z,10.20
2018-03-30T22:39:11.557Z,10.10
2018-03-30T22:41:38.578Z,10.10
2018-03-30T22:44:05.576Z,10.10
2018-03-30T22:46:32.597Z,10.10
2018-03-30T22:48:59.593Z,10.10
2018-03-30T22:51:26.604Z,10.10
2018-03-30T22:53:53.610Z,9.80
2018-03-30T22:56:20.620Z,9.80
2018-03-30T22:58:47.621Z,9.80
2018-03-30T23:01:14.646Z,9.80
2018-03-30T23:03:41.645Z,9.70
2018-03-30T23:06:08.652Z,9.70
2018-03-30T23:08:35.650Z,9.80
2018-03-30T23:11:02.656Z,9.70
2018-03-30T23:13:29.677Z,9.60
2018-03-30T23:15:56.680Z,9.60
2018-03-30T23:18:23.698Z,9.60
2018-03-30T23:20:50.694Z,9.50
2018-03-30T23:23:17.704Z,9.50
2018-03-30T23:25:44.694Z,9.60
2018-03-30T23:28:11.701Z,9.60
2018-03-30T23:30:39.462Z,9.50
2018-03-30T23:33:06.500Z,9.50
2018-03-30T23:35:33.497Z,9.60
2018-03-30T23:38:01.278Z,9.60
2018-03-30T23:40:29.037Z,9.50
2018-03-30T23:42:56.058Z,9.50
2018-03-30T23:45:23.053Z,9.50
2018-03-30T23:47:50.073Z,9.40
2018-03-30T23:50:17.071Z,9.40
2018-03-30T23:52:44.103Z,9.40
2018-03-30T23:55:11.096Z,9.30
2018-03-30T23:57:38.885Z,9.10
